Logo

Informe meteorológico de la semana en curso

  • Compartir en Google Plus
  • Compartir en Twitter
  • Compartir en Facebook
Nº de accesos al conjunto de datos: 253

Previsualización

API de datos Código HTML

_id codest paraje municipio periodo NDias tmin tmax tmed hrmin hrmax hrmed prec radmax radmed vvmed vvmax eto_pm_fao
1 AL31 Lebor Totana 14/06/2021 - 20/06/2021 2 17.5 31.9 25.2 25.0 63.7 41.5 0.0 1113 292.6 1.8 7.1 12.4
2 AL41 La Calavera Alhama 14/06/2021 - 20/06/2021 2 16.3 33.4 25.8 18.2 66.4 35.8 0.0 1173 313.9 2.4 10.7 14.5
3 AL52 Los Palomos Librilla 14/06/2021 - 20/06/2021 2 15.8 32.9 24.9 23.3 82.7 48.3 0.0 1133 296.9 1.6 8.4 11.9
4 AL62 Cañada Gallego Mazarrón 14/06/2021 - 20/06/2021 1 20.7 29.6 26.1 27.4 57.4 38.0 0.0 885 299.0 1.2 6.6 5.7
5 AL91 Leiva Mazarrón 14/06/2021 - 20/06/2021 2 18.6 33.1 27.3 19.5 68.5 38.4 0.0 1130 297.2 1.7 8.2 12.5
6 CA12 La Palma Cartagena 14/06/2021 - 20/06/2021 1 18.0 28.9 23.8 32.9 67.2 49.3 0.0 964 323.7 1.0 7.8 5.6
7 CA21 Corvera Murcia 14/06/2021 - 20/06/2021 2 19.8 31.0 25.7 28.5 54.0 39.9 0.0 1165 306.9 2.1 6.4 13.3
8 CA42 Balsapintada Fuente Alamo 14/06/2021 - 20/06/2021 2 17.0 31.6 25.0 26.8 77.5 47.4 0.0 1073 282.2 1.0 5.7 10.5
9 CA52 La Aljorra Cartagena 14/06/2021 - 20/06/2021 2 18.3 30.6 25.2 28.4 69.8 46.0 0.0 1004 267.7 2.6 9.7 12.7
10 CA73 Los Belones Cartagena 14/06/2021 - 20/06/2021 2 21.9 27.8 24.4 42.1 71.3 58.2 0.0 1000 269.8 2.5 10.0 11.2
11 CA91 Campillo Abajo Fuente Alamo 14/06/2021 - 20/06/2021 2 17.0 31.8 24.8 21.5 66.3 41.4 0.0 1147 302.3 0.7 5.7 10.5
12 CI22 Estación de Blanca Blanca 14/06/2021 - 20/06/2021 2 16.4 31.4 24.4 25.0 68.7 40.7 0.0 1101 305.3 1.0 6.0 10.9
13 CI32 Estación Ulea Ulea 14/06/2021 - 20/06/2021 2 17.2 30.8 24.3 27.7 71.8 46.8 0.0 1182 299.3 2.0 6.9 12.4
14 CI42 La Carrichosa Cieza 14/06/2021 - 20/06/2021 2 15.1 32.9 24.1 22.9 87.1 51.8 0.0 1148 302.6 1.0 6.2 10.9
15 CI52 Rotas Calasparra 14/06/2021 - 20/06/2021 2 14.9 33.1 24.3 18.9 74.2 42.4 0.0 1103 298.8 0.8 6.0 10.6
16 CI71 Llano de las olivericas Calasparra 14/06/2021 - 20/06/2021 2 16.2 32.4 24.0 24.4 78.0 48.3 0.0 1017 267.5 0.9 7.3 10.1
17 CR32 El Chaparral Cehegin 14/06/2021 - 20/06/2021 1 11.2 32.0 22.6 17.3 81.6 42.3 0.0 1065 310.4 0.9 7.4 5.4
18 CR42 Venta Ulea Moratalla 14/06/2021 - 20/06/2021 2 14.7 33.3 23.7 18.1 71.6 45.5 0.0 1082 287.5 1.7 6.8 12.1
19 CR52 La Torrecica Cehegin 14/06/2021 - 20/06/2021 1 14.0 32.7 23.6 16.7 68.6 38.7 0.0 1132 310.5 0.6 5.4 5.2
20 CR61 Casas del Rey Moratalla 14/06/2021 - 20/06/2021 1 16.9 28.2 22.2 24.1 41.0 30.3 0.0 1270 324.9 1.1 6.2 5.8
21 JU12 Cañada del Judio Jumilla 14/06/2021 - 20/06/2021 1 16.1 31.2 23.9 22.7 72.7 45.7 0.0 1006 305.0 1.6 7.5 6.1
22 JU42 Las Moratillas Yecla 14/06/2021 - 20/06/2021 2 13.6 31.7 23.1 21.6 88.8 51.2 0.0 1187 307.2 1.0 5.8 10.8
23 JU52 Pinillos Yecla 14/06/2021 - 20/06/2021 1 12.5 31.4 22.9 20.3 85.5 47.4 0.0 868 287.8 0.5 4.4 4.8
24 JU62 Miraflores Jumilla 14/06/2021 - 20/06/2021 2 14.5 31.7 23.8 25.5 83.4 47.2 0.0 1235 310.5 1.3 8.2 11.5
25 JU71 Las Encebras Jumilla 14/06/2021 - 20/06/2021 2 15.0 32.5 24.7 19.1 79.4 40.5 0.0 1205 316.1 1.5 7.3 12.4
26 JU81 Roman Jumilla 14/06/2021 - 20/06/2021 2 15.0 32.4 24.2 21.6 72.6 42.0 0.0 1200 300.9 1.0 6.2 11.0
27 LO11 Purias Lorca 14/06/2021 - 20/06/2021 2 18.0 32.8 25.2 22.5 65.2 41.7 0.0 1103 284.2 2.0 10.1 12.5
28 LO21 Pozohiguera Lorca 14/06/2021 - 20/06/2021 2 18.1 31.3 24.6 28.8 64.6 44.9 0.0 1043 281.6 2.6 8.9 13.1
29 LO31 La Pilica Aguilas 14/06/2021 - 20/06/2021 2 21.0 32.3 26.5 28.3 64.7 43.0 0.0 998 279.2 2.0 11.7 12.5
30 LO41 La Paca Lorca 14/06/2021 - 20/06/2021 2 15.0 31.4 23.2 21.7 58.1 39.1 0.4 1237 300.7 2.0 7.6 12.6
31 LO51 Tebar Aguilas 14/06/2021 - 20/06/2021 2 22.2 30.8 26.0 26.4 63.7 36.3 0.0 1082 293.9 2.8 13.5 14.7
32 LO61 El Esparragal Puerto Lumbreras 14/06/2021 - 20/06/2021 2 16.6 33.1 25.2 15.1 58.8 36.0 0.0 1140 304.0 2.0 10.8 13.3
33 ML21 Mula Mula 14/06/2021 - 20/06/2021 1 16.4 32.1 24.3 19.4 64.2 39.2 0.0 998 327.9 0.9 4.9 5.8
34 MO12 Pilica Torres de Cotillas 14/06/2021 - 20/06/2021 2 17.8 32.0 25.1 26.5 70.2 47.1 0.0 1099 297.7 1.2 6.3 11.3
35 MO22 Campotejar Molina Segura 14/06/2021 - 20/06/2021 2 17.7 31.9 25.0 18.7 70.6 40.9 0.0 1175 293.4 1.6 7.4 12.1
36 MO31 El Llano Molina Segura 14/06/2021 - 20/06/2021 2 15.4 32.7 24.7 21.6 99.5 53.4 0.0 1124 279.2 0.6 8.3 9.6
37 MO41 La Jaira Abanilla 14/06/2021 - 20/06/2021 1 18.9 31.2 24.5 24.6 62.3 41.7 0.0 931 317.0 1.2 6.4 6.0
38 MO51 Charco Taray Fortuna 14/06/2021 - 20/06/2021 2 18.9 31.3 24.9 26.8 62.3 44.8 0.0 1204 284.1 1.1 6.4 10.8
39 MO62 Loma del Aire Ojós 14/06/2021 - 20/06/2021 2 21.7 32.8 27.1 15.1 62.1 40.8 0.0 1159 300.9 0.8 7.2 11.1
40 MU21 Los Alamos Beniel 14/06/2021 - 20/06/2021 2 15.8 31.7 24.6 29.9 83.0 52.1 0.0 1102 296.8 1.4 6.4 11.4
41 MU31 La Vereda Murcia 14/06/2021 - 20/06/2021 2 18.4 32.7 25.6 23.2 69.1 43.9 0.0 1111 292.7 1.6 8.4 12.1
42 MU52 Cabezo Plata Murcia 14/06/2021 - 20/06/2021 2 19.6 30.5 25.1 28.9 64.4 44.8 0.0 1237 304.5 1.9 9.6 12.5
43 MU62 La Alberca Murcia 14/06/2021 - 20/06/2021 1 18.4 32.7 25.8 17.8 59.7 34.9 0.0 965 333.0 1.2 5.8 6.2
44 TP22 Santiago de la Ribera San Javier 14/06/2021 - 20/06/2021 1 17.7 27.9 23.7 34.9 75.8 50.7 0.0 946 316.4 1.4 5.2 5.6
45 TP42 Torre Blanca Torre Pacheco 14/06/2021 - 20/06/2021 1 17.7 29.8 24.4 36.7 76.2 52.4 0.0 908 304.5 2.0 7.7 6.0
46 TP52 El Mirador San Javier 14/06/2021 - 20/06/2021 2 19.0 29.2 24.9 28.7 65.2 42.0 0.0 1110 281.1 2.0 8.6 12.1
47 TP73 Los Infiernos Torre Pacheco 14/06/2021 - 20/06/2021 1 18.5 29.6 24.2 26.8 64.4 42.7 0.0 959 324.5 2.3 8.2 6.8
48 TP91 Torre Pacheco Torre Pacheco 14/06/2021 - 20/06/2021 1 17.5 30.2 24.3 32.0 74.2 50.0 0.0 974 329.2 1.1 6.0 5.8

Propiedades del conjunto de datos

Título
Informe meteorológico de la semana en curso
Descripción

Información sobre los datos meteorológicos medios de la semana en curso. Se incluye la información por cada una de las estaciones meteorológicas de la red SIAM gestionada por el Instituto Murciano de Investigación y Desarrollo Agrario y Alimentario (IMIDA). Los datos recogidos por las estaciones son validados al día siguiente de la toma de datos.

Categoría
Palabra clave / etiqueta
Publicador
Cobertura geográfica
Región de Murcia
Idioma
Español
Fecha de primera publicación
15/05/2018
Fecha de última modificación
16/06/2021
Licencia
Frecuencia de actualización
Diaria (cada día)
Diccionario de datos
La información se estructura en las siguientes columnas: Código de estación meteorológica, Nombre del paraje donde está ubicada la estación, Municipio donde está ubicada la estación, Fechas de toma de datos, número de días del ejercicio, Temperatura mínima (ºC), Temperatura máxima (ºC), Temperatura media (ºC), Humedad Relativa mínima (%), Humedad Relativa máxima (%),Humedad Relativa media (%),Precipitación (mm), radiación máxima (w/m2), radiación media (w/m2), Velocidad del Viento media (m/seg), Velocidad del Viento máxima (m/seg), Evapotranspiración máxima de un día (mm).
comments powered by Disqus